Hc Nadja Maria — V2AV4 — position and weather

sailwx.info

Track history (hours):
 
Tides and Currents Weather Stations Pressure Air Temp Water Temp Dewpoint Dewpoint Depression Visibility Wind Speed Wind Dir Waves Ship Positions

Hc Nadja Maria

Last reported at 2017-Apr-24 13:44 UTC. Time now 2017-Apr-26 00:15 UTC.
Position N 27°39' W 015°20'.

Length 130 m; draft 7.5 m.

Type: Cargo ship. MMSI: 304204000.

Date/timePositionNaut miles runAvg speedWind from/ knotsBaromVisibWave heightAir tempDewpointWater temp
2017-Apr-24 13:44N 27°39' W 015°20'313.2
2017-Apr-24 13:30N 27°42' W 015°19'612.3
2017-Apr-24 13:00N 27°47' W 015°16'713.1
2017-Apr-24 12:30N 27°53' W 015°14'713.3
2017-Apr-24 12:00N 27°60' W 015°14'713.1
2017-Apr-24 11:30N 28°05' W 015°19'611.2
2017-Apr-24 11:00N 28°09' W 015°24'0 0.6
2017-Apr-24 10:28N 28°09' W 015°24'0 0.0
2017-Apr-24 09:58N 28°09' W 015°24'0 0.0
2017-Apr-24 09:28N 28°09' W 015°24'0 0.0
2017-Apr-24 08:58N 28°09' W 015°24'0 0.0
2017-Apr-24 08:28N 28°09' W 015°24'0 0.0
2017-Apr-24 07:58N 28°09' W 015°24'0 0.0
2017-Apr-24 07:28N 28°09' W 015°24'0 0.0
2017-Apr-24 06:58N 28°09' W 015°24'0 0.0
2017-Apr-24 06:28N 28°09' W 015°24'0 0.0
2017-Apr-24 05:49N 28°09' W 015°24'0 0.0
2017-Apr-24 05:19N 28°09' W 015°24'0 0.0
2017-Apr-24 04:52N 28°09' W 015°24'0 0.0
2017-Apr-24 04:22N 28°09' W 015°24'0 0.0
2017-Apr-24 03:52N 28°09' W 015°24'0 0.0
2017-Apr-24 03:22N 28°09' W 015°24'0 0.1
2017-Apr-24 02:53N 28°09' W 015°24'1 3.7
2017-Apr-24 02:30N 28°08' W 015°23'1 1.1
2017-Apr-24 02:00N 28°08' W 015°22'611.9
2017-Apr-24 01:30N 28°12' W 015°17'713.3
2017-Apr-24 01:00N 28°17' W 015°12'713.4
2017-Apr-24 00:30N 28°22' W 015°07'713.5
2017-Apr-24 00:00N 28°27' W 015°01'713.5
2017-Apr-23 23:30N 28°31' W 014°56'713.4
2017-Apr-23 22:59N 28°36' W 014°50'613.4
2017-Apr-23 22:30N 28°41' W 014°45'63213.2
2017-Apr-21 22:28N 35°57' W 005°44'613.6
2017-Apr-21 22:00N 35°57' W 005°36'713.6
2017-Apr-21 21:30N 35°59' W 005°28'713.3
2017-Apr-21 21:01N 36°02' W 005°21'612.4
2017-Apr-21 20:30N 36°03' W 005°13'612.0
2017-Apr-21 19:58N 36°04' W 005°05'21412.1
2017-Apr-21 02:18N 37°19' W 000°55'413.3
2017-Apr-21 02:00N 37°22' W 000°51'713.3
2017-Apr-21 01:30N 37°26' W 000°45'1013.5
2017-Apr-21 00:47N 37°33' W 000°36'413.1
2017-Apr-21 00:30N 37°36' W 000°33'713.0
2017-Apr-21 00:00N 37°41' W 000°29'21413.1
2017-Apr-20 07:40N 40°33' E 002°15'213.2
2017-Apr-20 07:30N 40°34' E 002°17'713.2
2017-Apr-20 07:00N 40°40' E 002°22'713.3
2017-Apr-20 06:30N 40°45' E 002°27'713.3
2017-Apr-20 06:00N 40°50' E 002°33'713.3
2017-Apr-20 05:30N 40°56' E 002°38'713.3
2017-Apr-20 05:00N 41°01' E 002°44'17213.3
2017-Apr-19 16:05N 43°21' E 004°58'113.0
2017-Apr-19 16:01N 43°22' E 004°58'2 0.1
2017-Apr-18 15:36N 43°24' E 004°55'111.0
2017-Apr-18 15:30N 43°23' E 004°57'4 7.4
2017-Apr-18 15:00N 43°20' E 004°59'15 9.7
2017-Apr-18 13:29N 43°08' E 005°11'610.2
2017-Apr-18 12:54N 43°05' E 005°18'51712.2
2017-Apr-16 18:25N 38°36' E 015°01'612.8
2017-Apr-16 17:59N 38°33' E 015°07'713.1
2017-Apr-16 17:29N 38°30' E 015°14'613.1
2017-Apr-16 17:00N 38°27' E 015°21'613.1
2017-Apr-16 16:30N 38°24' E 015°28'713.2
2017-Apr-16 16:00N 38°21' E 015°36'6 7.8
2017-Apr-16 15:12N 38°15' E 015°38'211.0
2017-Apr-16 15:00N 38°13' E 015°37'611.3
2017-Apr-16 14:29N 38°07' E 015°36'1211.9
2017-Apr-16 13:30N 37°56' E 015°39'812.0
2017-Apr-16 12:48N 37°53' E 015°49'19612.0
2017-Apr-15 20:34N 40°24' E 018°30'213.3
2017-Apr-15 20:26N 40°25' E 018°28'25513.4
2017-Apr-15 01:23N 43°26' E 014°27'513.5
2017-Apr-15 01:01N 43°29' E 014°23'713.7
2017-Apr-15 00:30N 43°34' E 014°16'713.8
2017-Apr-14 23:59N 43°39' E 014°09'5013.3
2017-Apr-14 20:14N 44°10' E 013°14'313.1
2017-Apr-14 20:00N 44°12' E 013°11'613.2
2017-Apr-14 19:30N 44°16' E 013°03'713.3
2017-Apr-14 19:00N 44°19' E 012°56'713.3
2017-Apr-14 18:30N 44°23' E 012°48'612.9
2017-Apr-14 18:00N 44°26' E 012°40'712.9
2017-Apr-14 17:30N 44°30' E 012°33'612.7
2017-Apr-14 17:01N 44°30' E 012°24'510.1
2017-Apr-14 16:30N 44°30' E 012°17'3 4.5
2017-Apr-14 15:44N 44°26' E 012°15'0 0.0
2017-Apr-14 14:47N 44°26' E 012°15'  
Track history (hours):
 
Tides and Currents Weather Stations Pressure Air Temp Water Temp Dewpoint Dewpoint Depression Visibility Wind Speed Wind Dir Waves Ship Positions

Hc Nadja Maria

Last reported at 2017-Apr-24 13:44 UTC. Time now 2017-Apr-26 00:15 UTC.
Position N 27°39' W 015°20'.

Length 130 m; draft 7.5 m.

Type: Cargo ship. MMSI: 304204000.

Date/timePositionNaut miles runAvg speedWind from/ knotsBaromVisibWave heightAir tempDewpointWater temp
2017-Apr-24 13:44N 27°39' W 015°20'313.2
2017-Apr-24 13:30N 27°42' W 015°19'612.3
2017-Apr-24 13:00N 27°47' W 015°16'713.1
2017-Apr-24 12:30N 27°53' W 015°14'713.3
2017-Apr-24 12:00N 27°60' W 015°14'713.1
2017-Apr-24 11:30N 28°05' W 015°19'611.2
2017-Apr-24 11:00N 28°09' W 015°24'0 0.6
2017-Apr-24 10:28N 28°09' W 015°24'0 0.0
2017-Apr-24 09:58N 28°09' W 015°24'0 0.0
2017-Apr-24 09:28N 28°09' W 015°24'0 0.0
2017-Apr-24 08:58N 28°09' W 015°24'0 0.0
2017-Apr-24 08:28N 28°09' W 015°24'0 0.0
2017-Apr-24 07:58N 28°09' W 015°24'0 0.0
2017-Apr-24 07:28N 28°09' W 015°24'0 0.0
2017-Apr-24 06:58N 28°09' W 015°24'0 0.0
2017-Apr-24 06:28N 28°09' W 015°24'0 0.0
2017-Apr-24 05:49N 28°09' W 015°24'0 0.0
2017-Apr-24 05:19N 28°09' W 015°24'0 0.0
2017-Apr-24 04:52N 28°09' W 015°24'0 0.0
2017-Apr-24 04:22N 28°09' W 015°24'0 0.0
2017-Apr-24 03:52N 28°09' W 015°24'0 0.0
2017-Apr-24 03:22N 28°09' W 015°24'0 0.1
2017-Apr-24 02:53N 28°09' W 015°24'1 3.7
2017-Apr-24 02:30N 28°08' W 015°23'1 1.1
2017-Apr-24 02:00N 28°08' W 015°22'611.9
2017-Apr-24 01:30N 28°12' W 015°17'713.3
2017-Apr-24 01:00N 28°17' W 015°12'713.4
2017-Apr-24 00:30N 28°22' W 015°07'713.5
2017-Apr-24 00:00N 28°27' W 015°01'713.5
2017-Apr-23 23:30N 28°31' W 014°56'713.4
2017-Apr-23 22:59N 28°36' W 014°50'613.4
2017-Apr-23 22:30N 28°41' W 014°45'63213.2
2017-Apr-21 22:28N 35°57' W 005°44'613.6
2017-Apr-21 22:00N 35°57' W 005°36'713.6
2017-Apr-21 21:30N 35°59' W 005°28'713.3
2017-Apr-21 21:01N 36°02' W 005°21'612.4
2017-Apr-21 20:30N 36°03' W 005°13'612.0
2017-Apr-21 19:58N 36°04' W 005°05'21412.1
2017-Apr-21 02:18N 37°19' W 000°55'413.3
2017-Apr-21 02:00N 37°22' W 000°51'713.3
2017-Apr-21 01:30N 37°26' W 000°45'1013.5
2017-Apr-21 00:47N 37°33' W 000°36'413.1
2017-Apr-21 00:30N 37°36' W 000°33'713.0
2017-Apr-21 00:00N 37°41' W 000°29'21413.1
2017-Apr-20 07:40N 40°33' E 002°15'213.2
2017-Apr-20 07:30N 40°34' E 002°17'713.2
2017-Apr-20 07:00N 40°40' E 002°22'713.3
2017-Apr-20 06:30N 40°45' E 002°27'713.3
2017-Apr-20 06:00N 40°50' E 002°33'713.3
2017-Apr-20 05:30N 40°56' E 002°38'713.3
2017-Apr-20 05:00N 41°01' E 002°44'17213.3
2017-Apr-19 16:05N 43°21' E 004°58'113.0
2017-Apr-19 16:01N 43°22' E 004°58'2 0.1
2017-Apr-18 15:36N 43°24' E 004°55'111.0
2017-Apr-18 15:30N 43°23' E 004°57'4 7.4
2017-Apr-18 15:00N 43°20' E 004°59'15 9.7
2017-Apr-18 13:29N 43°08' E 005°11'610.2
2017-Apr-18 12:54N 43°05' E 005°18'51712.2
2017-Apr-16 18:25N 38°36' E 015°01'612.8
2017-Apr-16 17:59N 38°33' E 015°07'713.1
2017-Apr-16 17:29N 38°30' E 015°14'613.1
2017-Apr-16 17:00N 38°27' E 015°21'613.1
2017-Apr-16 16:30N 38°24' E 015°28'713.2
2017-Apr-16 16:00N 38°21' E 015°36'6 7.8
2017-Apr-16 15:12N 38°15' E 015°38'211.0
2017-Apr-16 15:00N 38°13' E 015°37'611.3
2017-Apr-16 14:29N 38°07' E 015°36'1211.9
2017-Apr-16 13:30N 37°56' E 015°39'812.0
2017-Apr-16 12:48N 37°53' E 015°49'19612.0
2017-Apr-15 20:34N 40°24' E 018°30'213.3
2017-Apr-15 20:26N 40°25' E 018°28'25513.4
2017-Apr-15 01:23N 43°26' E 014°27'513.5
2017-Apr-15 01:01N 43°29' E 014°23'713.7
2017-Apr-15 00:30N 43°34' E 014°16'713.8
2017-Apr-14 23:59N 43°39' E 014°09'5013.3
2017-Apr-14 20:14N 44°10' E 013°14'313.1
2017-Apr-14 20:00N 44°12' E 013°11'613.2
2017-Apr-14 19:30N 44°16' E 013°03'713.3
2017-Apr-14 19:00N 44°19' E 012°56'713.3
2017-Apr-14 18:30N 44°23' E 012°48'612.9
2017-Apr-14 18:00N 44°26' E 012°40'712.9
2017-Apr-14 17:30N 44°30' E 012°33'612.7
2017-Apr-14 17:01N 44°30' E 012°24'510.1
2017-Apr-14 16:30N 44°30' E 012°17'3 4.5
2017-Apr-14 15:44N 44°26' E 012°15'0 0.0
2017-Apr-14 14:47N 44°26' E 012°15'  

Dump ship's entire track history